sensor_id;sensor_type;location;lat;lon;timestamp;P1;durP1;ratioP1;P2;durP2;ratioP2
3949;SDS011;53057;50.988;6.314;2024-01-16T17:23:34;33.85;;;13.23;;
3949;SDS011;53057;50.988;6.314;2024-01-16T17:26:01;22.88;;;12.00;;
3949;SDS011;53057;50.988;6.314;2024-01-16T17:28:29;31.85;;;12.93;;
3949;SDS011;53057;50.988;6.314;2024-01-16T17:30:57;29.50;;;12.55;;
3949;SDS011;53057;50.988;6.314;2024-01-16T17:33:29;34.72;;;14.45;;
3949;SDS011;53057;50.988;6.314;2024-01-16T17:35:56;23.25;;;12.77;;
3949;SDS011;53057;50.988;6.314;2024-01-16T17:38:34;27.77;;;13.43;;
3949;SDS011;53057;50.988;6.314;2024-01-16T17:41:01;24.77;;;12.55;;
3949;SDS011;53057;50.988;6.314;2024-01-16T17:43:31;24.40;;;13.18;;
3949;SDS011;53057;50.988;6.314;2024-01-16T17:45:58;30.58;;;13.73;;
3949;SDS011;53057;50.988;6.314;2024-01-16T17:48:24;34.05;;;13.52;;
3949;SDS011;53057;50.988;6.314;2024-01-16T17:50:52;22.90;;;14.50;;
3949;SDS011;53057;50.988;6.314;2024-01-16T17:53:19;31.92;;;14.90;;
3949;SDS011;53057;50.988;6.314;2024-01-16T17:55:46;27.42;;;16.75;;
3949;SDS011;53057;50.988;6.314;2024-01-16T17:58:14;31.52;;;15.70;;
3949;SDS011;53057;50.988;6.314;2024-01-16T18:00:42;25.77;;;17.02;;
3949;SDS011;53057;50.988;6.314;2024-01-16T18:03:10;37.58;;;18.35;;
3949;SDS011;53057;50.988;6.314;2024-01-16T18:05:58;31.33;;;18.52;;
3949;SDS011;53057;50.988;6.314;2024-01-16T18:08:32;38.55;;;17.05;;
3949;SDS011;53057;50.988;6.314;2024-01-16T18:11:00;24.23;;;15.32;;
3949;SDS011;53057;50.988;6.314;2024-01-16T18:13:26;38.75;;;19.33;;
3949;SDS011;53057;50.988;6.314;2024-01-16T18:15:58;28.00;;;16.63;;
3949;SDS011;53057;50.988;6.314;2024-01-16T18:18:25;34.40;;;18.08;;
3949;SDS011;53057;50.988;6.314;2024-01-16T18:20:53;27.75;;;15.43;;
3949;SDS011;53057;50.988;6.314;2024-01-16T18:23:20;28.98;;;15.93;;
3949;SDS011;53057;50.988;6.314;2024-01-16T18:25:48;32.65;;;18.77;;
3949;SDS011;53057;50.988;6.314;2024-01-16T18:28:14;32.72;;;16.30;;
3949;SDS011;53057;50.988;6.314;2024-01-16T18:30:41;42.95;;;21.17;;
3949;SDS011;53057;50.988;6.314;2024-01-16T18:33:08;28.77;;;18.25;;
3949;SDS011;53057;50.988;6.314;2024-01-16T18:35:35;38.50;;;22.95;;
3949;SDS011;53057;50.988;6.314;2024-01-16T18:38:03;32.03;;;17.17;;
3949;SDS011;53057;50.988;6.314;2024-01-16T18:40:30;26.75;;;15.60;;
3949;SDS011;53057;50.988;6.314;2024-01-16T18:42:57;47.92;;;20.55;;
3949;SDS011;53057;50.988;6.314;2024-01-16T18:45:24;37.10;;;20.38;;
3949;SDS011;53057;50.988;6.314;2024-01-16T18:47:50;41.40;;;18.73;;
3949;SDS011;53057;50.988;6.314;2024-01-16T18:50:20;28.65;;;16.15;;
3949;SDS011;53057;50.988;6.314;2024-01-16T18:52:47;31.48;;;16.27;;
3949;SDS011;53057;50.988;6.314;2024-01-16T18:55:14;33.35;;;17.83;;
3949;SDS011;53057;50.988;6.314;2024-01-16T18:57:42;129.60;;;50.90;;
3949;SDS011;53057;50.988;6.314;2024-01-16T19:00:10;100.88;;;36.80;;
3949;SDS011;53057;50.988;6.314;2024-01-16T19:02:41;166.20;;;57.38;;
3949;SDS011;53057;50.988;6.314;2024-01-16T19:05:09;45.63;;;20.65;;
3949;SDS011;53057;50.988;6.314;2024-01-16T19:07:42;141.55;;;61.13;;
3949;SDS011;53057;50.988;6.314;2024-01-16T19:10:10;62.53;;;29.55;;
3949;SDS011;53057;50.988;6.314;2024-01-16T19:12:43;27.83;;;17.00;;
3949;SDS011;53057;50.988;6.314;2024-01-16T19:15:13;33.35;;;20.85;;
3949;SDS011;53057;50.988;6.314;2024-01-16T19:17:45;23.10;;;14.85;;
3949;SDS011;53057;50.988;6.314;2024-01-16T19:20:13;58.90;;;36.40;;
3949;SDS011;53057;50.988;6.314;2024-01-16T19:22:41;61.38;;;37.35;;
3949;SDS011;53057;50.988;6.314;2024-01-16T19:25:08;53.97;;;38.25;;
3949;SDS011;53057;50.988;6.314;2024-01-16T19:27:37;45.97;;;23.67;;
3949;SDS011;53057;50.988;6.314;2024-01-16T19:30:05;33.90;;;13.70;;
3949;SDS011;53057;50.988;6.314;2024-01-16T19:32:34;23.10;;;11.70;;
3949;SDS011;53057;50.988;6.314;2024-01-16T19:35:02;24.13;;;14.10;;
3949;SDS011;53057;50.988;6.314;2024-01-16T19:37:29;19.70;;;12.05;;
3949;SDS011;53057;50.988;6.314;2024-01-16T19:39:56;31.58;;;12.80;;
3949;SDS011;53057;50.988;6.314;2024-01-16T19:42:22;21.10;;;11.60;;
3949;SDS011;53057;50.988;6.314;2024-01-16T19:44:51;24.33;;;11.63;;
3949;SDS011;53057;50.988;6.314;2024-01-16T19:47:18;76.30;;;17.83;;
3949;SDS011;53057;50.988;6.314;2024-01-16T19:49:44;25.65;;;12.23;;
3949;SDS011;53057;50.988;6.314;2024-01-16T19:52:11;22.65;;;12.80;;
3949;SDS011;53057;50.988;6.314;2024-01-16T19:54:38;26.77;;;15.32;;
3949;SDS011;53057;50.988;6.314;2024-01-16T19:57:05;23.73;;;12.35;;
3949;SDS011;53057;50.988;6.314;2024-01-16T19:59:33;24.30;;;12.05;;
3949;SDS011;53057;50.988;6.314;2024-01-16T20:02:00;28.58;;;16.58;;
3949;SDS011;53057;50.988;6.314;2024-01-16T20:04:27;23.42;;;12.15;;
3949;SDS011;53057;50.988;6.314;2024-01-16T20:06:54;26.08;;;12.20;;
3949;SDS011;53057;50.988;6.314;2024-01-16T20:09:21;21.83;;;10.63;;
3949;SDS011;53057;50.988;6.314;2024-01-16T20:11:48;22.80;;;14.10;;
3949;SDS011;53057;50.988;6.314;2024-01-16T20:14:15;28.50;;;17.88;;
3949;SDS011;53057;50.988;6.314;2024-01-16T20:16:43;20.73;;;11.63;;
3949;SDS011;53057;50.988;6.314;2024-01-16T20:19:10;18.85;;;11.93;;
3949;SDS011;53057;50.988;6.314;2024-01-16T20:21:40;27.58;;;18.15;;
3949;SDS011;53057;50.988;6.314;2024-01-16T20:24:08;27.23;;;19.75;;
3949;SDS011;53057;50.988;6.314;2024-01-16T20:26:34;26.05;;;13.63;;
3949;SDS011;53057;50.988;6.314;2024-01-16T20:29:03;29.27;;;17.30;;
3949;SDS011;53057;50.988;6.314;2024-01-16T20:31:30;25.88;;;15.48;;
3949;SDS011;53057;50.988;6.314;2024-01-16T20:33:58;31.88;;;18.13;;
3949;SDS011;53057;50.988;6.314;2024-01-16T20:36:26;27.60;;;15.20;;
3949;SDS011;53057;50.988;6.314;2024-01-16T20:38:52;30.50;;;19.23;;
3949;SDS011;53057;50.988;6.314;2024-01-16T20:41:19;43.08;;;23.52;;
3949;SDS011;53057;50.988;6.314;2024-01-16T20:43:47;39.05;;;21.55;;
3949;SDS011;53057;50.988;6.314;2024-01-16T20:46:14;44.75;;;24.08;;
3949;SDS011;53057;50.988;6.314;2024-01-16T20:48:41;40.95;;;28.10;;
3949;SDS011;53057;50.988;6.314;2024-01-16T20:51:08;33.30;;;17.02;;
3949;SDS011;53057;50.988;6.314;2024-01-16T20:53:40;26.90;;;17.20;;
3949;SDS011;53057;50.988;6.314;2024-01-16T20:56:07;28.33;;;17.13;;
3949;SDS011;53057;50.988;6.314;2024-01-16T20:58:34;26.83;;;15.10;;
3949;SDS011;53057;50.988;6.314;2024-01-16T21:01:02;27.95;;;15.57;;
3949;SDS011;53057;50.988;6.314;2024-01-16T21:03:28;29.63;;;17.58;;
3949;SDS011;53057;50.988;6.314;2024-01-16T21:05:57;22.40;;;15.48;;
3949;SDS011;53057;50.988;6.314;2024-01-16T21:08:24;31.58;;;16.60;;
3949;SDS011;53057;50.988;6.314;2024-01-16T21:10:51;24.58;;;14.75;;
3949;SDS011;53057;50.988;6.314;2024-01-16T21:13:18;17.40;;;12.48;;
3949;SDS011;53057;50.988;6.314;2024-01-16T21:15:45;22.15;;;12.25;;
3949;SDS011;53057;50.988;6.314;2024-01-16T21:18:13;28.70;;;13.00;;
3949;SDS011;53057;50.988;6.314;2024-01-16T21:20:43;35.58;;;14.45;;
3949;SDS011;53057;50.988;6.314;2024-01-16T21:23:10;26.30;;;13.40;;
3949;SDS011;53057;50.988;6.314;2024-01-16T21:25:39;30.50;;;12.75;;
3949;SDS011;53057;50.988;6.314;2024-01-16T21:28:07;26.20;;;14.38;;
3949;SDS011;53057;50.988;6.314;2024-01-16T21:30:35;19.73;;;12.38;;
3949;SDS011;53057;50.988;6.314;2024-01-16T21:33:02;21.38;;;14.40;;
3949;SDS011;53057;50.988;6.314;2024-01-16T21:35:29;30.02;;;15.10;;
3949;SDS011;53057;50.988;6.314;2024-01-16T21:37:57;34.53;;;14.45;;
3949;SDS011;53057;50.988;6.314;2024-01-16T21:40:25;36.42;;;14.30;;
3949;SDS011;53057;50.988;6.314;2024-01-16T21:42:52;30.70;;;14.75;;
3949;SDS011;53057;50.988;6.314;2024-01-16T21:45:19;36.90;;;19.23;;
3949;SDS011;53057;50.988;6.314;2024-01-16T21:47:46;72.40;;;42.95;;
3949;SDS011;53057;50.988;6.314;2024-01-16T21:50:14;97.53;;;47.20;;
3949;SDS011;53057;50.988;6.314;2024-01-16T21:52:58;285.80;;;159.52;;
3949;SDS011;53057;50.988;6.314;2024-01-16T21:55:26;333.05;;;162.73;;
3949;SDS011;53057;50.988;6.314;2024-01-16T21:57:52;58.55;;;37.20;;
3949;SDS011;53057;50.988;6.314;2024-01-16T22:00:19;37.53;;;18.80;;
3949;SDS011;53057;50.988;6.314;2024-01-16T22:02:48;40.08;;;22.98;;
3949;SDS011;53057;50.988;6.314;2024-01-16T22:05:16;29.13;;;17.23;;
3949;SDS011;53057;50.988;6.314;2024-01-16T22:07:44;40.00;;;29.25;;
3949;SDS011;53057;50.988;6.314;2024-01-16T22:10:12;38.40;;;18.58;;
3949;SDS011;53057;50.988;6.314;2024-01-16T22:12:40;54.90;;;43.83;;
3949;SDS011;53057;50.988;6.314;2024-01-16T22:15:07;28.80;;;20.00;;
3949;SDS011;53057;50.988;6.314;2024-01-16T22:17:39;33.47;;;15.77;;
3949;SDS011;53057;50.988;6.314;2024-01-16T22:20:07;19.73;;;13.00;;
3949;SDS011;53057;50.988;6.314;2024-01-16T22:22:37;21.05;;;13.13;;
3949;SDS011;53057;50.988;6.314;2024-01-16T22:25:07;24.73;;;13.10;;
3949;SDS011;53057;50.988;6.314;2024-01-16T22:27:34;31.20;;;15.75;;
3949;SDS011;53057;50.988;6.314;2024-01-16T22:30:02;21.88;;;14.00;;
3949;SDS011;53057;50.988;6.314;2024-01-16T22:32:30;18.55;;;11.90;;
3949;SDS011;53057;50.988;6.314;2024-01-16T22:34:57;27.98;;;12.63;;
3949;SDS011;53057;50.988;6.314;2024-01-16T22:37:26;25.33;;;11.82;;
3949;SDS011;53057;50.988;6.314;2024-01-16T22:39:56;28.50;;;13.15;;
3949;SDS011;53057;50.988;6.314;2024-01-16T22:42:24;26.27;;;15.13;;
3949;SDS011;53057;50.988;6.314;2024-01-16T22:44:51;34.65;;;19.27;;
3949;SDS011;53057;50.988;6.314;2024-01-16T22:47:19;41.70;;;21.55;;
3949;SDS011;53057;50.988;6.314;2024-01-16T22:49:47;40.83;;;18.80;;
3949;SDS011;53057;50.988;6.314;2024-01-16T22:52:14;26.08;;;16.30;;
3949;SDS011;53057;50.988;6.314;2024-01-16T22:54:42;30.35;;;17.15;;
3949;SDS011;53057;50.988;6.314;2024-01-16T22:57:10;28.05;;;17.48;;
3949;SDS011;53057;50.988;6.314;2024-01-16T22:59:37;27.83;;;21.48;;
3949;SDS011;53057;50.988;6.314;2024-01-16T23:02:05;34.85;;;23.55;;
3949;SDS011;53057;50.988;6.314;2024-01-16T23:04:32;39.10;;;27.23;;
3949;SDS011;53057;50.988;6.314;2024-01-16T23:07:00;46.60;;;26.48;;
3949;SDS011;53057;50.988;6.314;2024-01-16T23:09:27;31.55;;;18.13;;
3949;SDS011;53057;50.988;6.314;2024-01-16T23:11:54;35.10;;;21.48;;
3949;SDS011;53057;50.988;6.314;2024-01-16T23:14:21;34.00;;;17.80;;
3949;SDS011;53057;50.988;6.314;2024-01-16T23:16:49;24.90;;;15.57;;
3949;SDS011;53057;50.988;6.314;2024-01-16T23:19:17;30.60;;;15.43;;
3949;SDS011;53057;50.988;6.314;2024-01-16T23:21:46;26.60;;;13.90;;
3949;SDS011;53057;50.988;6.314;2024-01-16T23:24:13;24.65;;;14.52;;
3949;SDS011;53057;50.988;6.314;2024-01-16T23:26:42;17.77;;;13.43;;
3949;SDS011;53057;50.988;6.314;2024-01-16T23:29:09;35.95;;;15.55;;
3949;SDS011;53057;50.988;6.314;2024-01-16T23:31:37;29.70;;;15.57;;
3949;SDS011;53057;50.988;6.314;2024-01-16T23:34:04;25.40;;;13.95;;
3949;SDS011;53057;50.988;6.314;2024-01-16T23:36:32;37.72;;;14.35;;
3949;SDS011;53057;50.988;6.314;2024-01-16T23:38:59;30.80;;;14.07;;
3949;SDS011;53057;50.988;6.314;2024-01-16T23:41:27;24.27;;;13.10;;
3949;SDS011;53057;50.988;6.314;2024-01-16T23:43:58;28.40;;;13.40;;
3949;SDS011;53057;50.988;6.314;2024-01-16T23:46:26;24.83;;;13.05;;
3949;SDS011;53057;50.988;6.314;2024-01-16T23:48:52;25.50;;;13.60;;
3949;SDS011;53057;50.988;6.314;2024-01-16T23:51:24;28.48;;;13.50;;
3949;SDS011;53057;50.988;6.314;2024-01-16T23:53:50;25.75;;;13.85;;
3949;SDS011;53057;50.988;6.314;2024-01-16T23:56:18;29.52;;;14.40;;
3949;SDS011;53057;50.988;6.314;2024-01-16T23:58:46;22.35;;;14.45;;
